sensor_id;sensor_type;location;lat;lon;timestamp;temperature;humidity
37456;DHT22;23316;50.718;7.328;2023-07-02T00:02:18;19.60;58.00
37456;DHT22;23316;50.718;7.328;2023-07-02T00:04:45;19.60;57.90
37456;DHT22;23316;50.718;7.328;2023-07-02T00:07:12;19.60;57.90
37456;DHT22;23316;50.718;7.328;2023-07-02T00:09:40;19.60;57.90
37456;DHT22;23316;50.718;7.328;2023-07-02T00:12:08;19.60;58.00
37456;DHT22;23316;50.718;7.328;2023-07-02T00:14:37;19.50;58.50
37456;DHT22;23316;50.718;7.328;2023-07-02T00:17:04;19.60;58.10
37456;DHT22;23316;50.718;7.328;2023-07-02T00:19:32;19.60;58.20
37456;DHT22;23316;50.718;7.328;2023-07-02T00:21:59;19.60;58.20
37456;DHT22;23316;50.718;7.328;2023-07-02T00:24:26;19.50;58.20
37456;DHT22;23316;50.718;7.328;2023-07-02T00:26:55;19.50;58.20
37456;DHT22;23316;50.718;7.328;2023-07-02T00:29:22;19.60;58.30
37456;DHT22;23316;50.718;7.328;2023-07-02T00:31:51;19.60;58.30
37456;DHT22;23316;50.718;7.328;2023-07-02T00:34:18;19.60;58.30
37456;DHT22;23316;50.718;7.328;2023-07-02T00:36:46;19.60;58.30
37456;DHT22;23316;50.718;7.328;2023-07-02T00:39:13;19.60;58.40
37456;DHT22;23316;50.718;7.328;2023-07-02T00:41:42;19.60;58.40
37456;DHT22;23316;50.718;7.328;2023-07-02T00:44:10;19.60;58.50
37456;DHT22;23316;50.718;7.328;2023-07-02T00:46:37;19.60;58.40
37456;DHT22;23316;50.718;7.328;2023-07-02T00:49:06;19.60;58.50
37456;DHT22;23316;50.718;7.328;2023-07-02T00:51:34;19.60;58.50
37456;DHT22;23316;50.718;7.328;2023-07-02T00:54:03;19.60;58.50
37456;DHT22;23316;50.718;7.328;2023-07-02T00:56:30;19.60;58.40
37456;DHT22;23316;50.718;7.328;2023-07-02T00:58:57;19.60;58.40
37456;DHT22;23316;50.718;7.328;2023-07-02T01:01:27;19.60;58.40
37456;DHT22;23316;50.718;7.328;2023-07-02T01:03:59;19.60;58.30
37456;DHT22;23316;50.718;7.328;2023-07-02T01:06:30;19.60;58.30
37456;DHT22;23316;50.718;7.328;2023-07-02T01:08:59;19.60;58.30
37456;DHT22;23316;50.718;7.328;2023-07-02T01:11:28;19.60;58.20
37456;DHT22;23316;50.718;7.328;2023-07-02T01:14:01;19.50;58.10
37456;DHT22;23316;50.718;7.328;2023-07-02T01:16:30;19.50;58.10
37456;DHT22;23316;50.718;7.328;2023-07-02T01:19:00;19.50;58.00
37456;DHT22;23316;50.718;7.328;2023-07-02T01:21:31;19.50;57.90
37456;DHT22;23316;50.718;7.328;2023-07-02T01:23:59;19.40;57.70
37456;DHT22;23316;50.718;7.328;2023-07-02T01:26:29;19.40;57.60
37456;DHT22;23316;50.718;7.328;2023-07-02T01:28:59;19.40;57.60
37456;DHT22;23316;50.718;7.328;2023-07-02T01:31:27;19.30;57.40
37456;DHT22;23316;50.718;7.328;2023-07-02T01:33:54;19.30;57.40
37456;DHT22;23316;50.718;7.328;2023-07-02T01:36:21;19.30;57.40
37456;DHT22;23316;50.718;7.328;2023-07-02T01:38:50;19.30;57.40
37456;DHT22;23316;50.718;7.328;2023-07-02T01:41:17;19.20;57.30
37456;DHT22;23316;50.718;7.328;2023-07-02T01:43:44;19.20;57.20
37456;DHT22;23316;50.718;7.328;2023-07-02T01:46:11;19.20;57.20
37456;DHT22;23316;50.718;7.328;2023-07-02T01:48:39;19.20;57.10
37456;DHT22;23316;50.718;7.328;2023-07-02T01:51:06;19.10;57.00
37456;DHT22;23316;50.718;7.328;2023-07-02T01:53:33;19.10;57.00
37456;DHT22;23316;50.718;7.328;2023-07-02T01:56:02;19.10;56.90
37456;DHT22;23316;50.718;7.328;2023-07-02T01:58:29;19.10;56.90
37456;DHT22;23316;50.718;7.328;2023-07-02T02:00:56;19.10;56.90
37456;DHT22;23316;50.718;7.328;2023-07-02T02:03:24;19.00;56.80
37456;DHT22;23316;50.718;7.328;2023-07-02T02:05:51;19.00;56.80
37456;DHT22;23316;50.718;7.328;2023-07-02T02:08:18;19.00;56.80
37456;DHT22;23316;50.718;7.328;2023-07-02T02:10:45;19.00;56.80
37456;DHT22;23316;50.718;7.328;2023-07-02T02:13:14;19.00;56.80
37456;DHT22;23316;50.718;7.328;2023-07-02T02:15:41;19.00;56.80
37456;DHT22;23316;50.718;7.328;2023-07-02T02:18:08;19.00;56.80
37456;DHT22;23316;50.718;7.328;2023-07-02T02:20:35;18.90;56.80
37456;DHT22;23316;50.718;7.328;2023-07-02T02:23:03;18.90;56.80
37456;DHT22;23316;50.718;7.328;2023-07-02T02:25:30;18.90;56.80
37456;DHT22;23316;50.718;7.328;2023-07-02T02:27:57;18.90;56.90
37456;DHT22;23316;50.718;7.328;2023-07-02T02:30:26;18.90;57.30
37456;DHT22;23316;50.718;7.328;2023-07-02T02:32:53;18.90;56.80
37456;DHT22;23316;50.718;7.328;2023-07-02T02:35:20;18.90;56.80
37456;DHT22;23316;50.718;7.328;2023-07-02T02:37:48;18.90;56.80
37456;DHT22;23316;50.718;7.328;2023-07-02T02:40:15;18.90;56.80
37456;DHT22;23316;50.718;7.328;2023-07-02T02:42:43;18.90;56.80
37456;DHT22;23316;50.718;7.328;2023-07-02T02:45:10;18.90;56.80
37456;DHT22;23316;50.718;7.328;2023-07-02T02:47:39;18.90;56.80
37456;DHT22;23316;50.718;7.328;2023-07-02T02:50:07;18.90;56.80
37456;DHT22;23316;50.718;7.328;2023-07-02T02:52:35;18.90;56.90
37456;DHT22;23316;50.718;7.328;2023-07-02T02:55:04;18.90;56.90
37456;DHT22;23316;50.718;7.328;2023-07-02T02:57:32;18.90;56.90
37456;DHT22;23316;50.718;7.328;2023-07-02T02:59:59;18.90;56.90
37456;DHT22;23316;50.718;7.328;2023-07-02T03:02:27;18.90;56.90
37456;DHT22;23316;50.718;7.328;2023-07-02T03:04:55;18.90;56.90
37456;DHT22;23316;50.718;7.328;2023-07-02T03:07:26;18.90;56.90
37456;DHT22;23316;50.718;7.328;2023-07-02T03:09:53;18.90;56.90
37456;DHT22;23316;50.718;7.328;2023-07-02T03:12:21;18.90;56.90
37456;DHT22;23316;50.718;7.328;2023-07-02T03:14:49;18.80;56.80
37456;DHT22;23316;50.718;7.328;2023-07-02T03:17:18;18.80;56.80
37456;DHT22;23316;50.718;7.328;2023-07-02T03:19:46;18.80;56.70
37456;DHT22;23316;50.718;7.328;2023-07-02T03:22:14;18.80;56.70
37456;DHT22;23316;50.718;7.328;2023-07-02T03:24:42;18.80;56.70
37456;DHT22;23316;50.718;7.328;2023-07-02T03:27:09;18.80;56.60
37456;DHT22;23316;50.718;7.328;2023-07-02T03:29:36;18.80;56.60
37456;DHT22;23316;50.718;7.328;2023-07-02T03:32:05;18.80;56.60
37456;DHT22;23316;50.718;7.328;2023-07-02T03:34:32;18.80;56.50
37456;DHT22;23316;50.718;7.328;2023-07-02T03:36:59;18.80;56.50
37456;DHT22;23316;50.718;7.328;2023-07-02T03:39:28;18.80;56.50
37456;DHT22;23316;50.718;7.328;2023-07-02T03:41:55;18.80;56.50
37456;DHT22;23316;50.718;7.328;2023-07-02T03:44:22;18.70;56.40
37456;DHT22;23316;50.718;7.328;2023-07-02T03:46:50;18.70;56.50
37456;DHT22;23316;50.718;7.328;2023-07-02T03:49:17;18.70;56.40
37456;DHT22;23316;50.718;7.328;2023-07-02T03:51:44;18.70;56.40
37456;DHT22;23316;50.718;7.328;2023-07-02T03:54:12;18.70;56.40
37456;DHT22;23316;50.718;7.328;2023-07-02T03:56:40;18.70;56.40
37456;DHT22;23316;50.718;7.328;2023-07-02T03:59:07;18.70;56.40
37456;DHT22;23316;50.718;7.328;2023-07-02T04:01:34;18.70;56.40
37456;DHT22;23316;50.718;7.328;2023-07-02T04:04:02;18.70;56.30
37456;DHT22;23316;50.718;7.328;2023-07-02T04:06:29;18.70;56.30
37456;DHT22;23316;50.718;7.328;2023-07-02T04:08:56;18.70;56.30
37456;DHT22;23316;50.718;7.328;2023-07-02T04:11:23;18.70;56.90
37456;DHT22;23316;50.718;7.328;2023-07-02T04:13:52;18.70;56.40
37456;DHT22;23316;50.718;7.328;2023-07-02T04:16:19;18.60;56.40
37456;DHT22;23316;50.718;7.328;2023-07-02T04:18:46;18.70;56.40
37456;DHT22;23316;50.718;7.328;2023-07-02T04:21:13;18.70;56.50
37456;DHT22;23316;50.718;7.328;2023-07-02T04:23:41;18.70;56.50
37456;DHT22;23316;50.718;7.328;2023-07-02T04:26:08;18.70;56.50
37456;DHT22;23316;50.718;7.328;2023-07-02T04:28:36;18.70;56.50
37456;DHT22;23316;50.718;7.328;2023-07-02T04:31:04;18.70;56.60
37456;DHT22;23316;50.718;7.328;2023-07-02T04:33:31;18.70;56.50
37456;DHT22;23316;50.718;7.328;2023-07-02T04:36:02;18.70;56.50
37456;DHT22;23316;50.718;7.328;2023-07-02T04:38:29;18.70;56.60
37456;DHT22;23316;50.718;7.328;2023-07-02T04:40:56;18.80;56.60
37456;DHT22;23316;50.718;7.328;2023-07-02T04:43:27;18.80;56.50
37456;DHT22;23316;50.718;7.328;2023-07-02T04:45:55;18.80;56.50
37456;DHT22;23316;50.718;7.328;2023-07-02T04:48:24;18.80;56.50
37456;DHT22;23316;50.718;7.328;2023-07-02T04:50:51;18.80;56.50
37456;DHT22;23316;50.718;7.328;2023-07-02T04:53:18;18.80;56.40
37456;DHT22;23316;50.718;7.328;2023-07-02T04:55:45;18.90;56.40
37456;DHT22;23316;50.718;7.328;2023-07-02T04:58:13;18.80;56.40
37456;DHT22;23316;50.718;7.328;2023-07-02T05:00:40;18.90;56.30
37456;DHT22;23316;50.718;7.328;2023-07-02T05:03:07;18.90;56.30
37456;DHT22;23316;50.718;7.328;2023-07-02T05:05:36;18.90;56.30
37456;DHT22;23316;50.718;7.328;2023-07-02T05:08:03;18.90;56.20
37456;DHT22;23316;50.718;7.328;2023-07-02T05:10:31;18.90;56.20
37456;DHT22;23316;50.718;7.328;2023-07-02T05:12:58;19.00;56.20
37456;DHT22;23316;50.718;7.328;2023-07-02T05:15:25;19.00;56.10
37456;DHT22;23316;50.718;7.328;2023-07-02T05:17:53;19.00;56.20
37456;DHT22;23316;50.718;7.328;2023-07-02T05:20:20;19.00;56.20
37456;DHT22;23316;50.718;7.328;2023-07-02T05:22:48;19.00;56.20
37456;DHT22;23316;50.718;7.328;2023-07-02T05:25:16;19.00;56.20
37456;DHT22;23316;50.718;7.328;2023-07-02T05:27:43;19.00;56.20
37456;DHT22;23316;50.718;7.328;2023-07-02T05:30:11;19.00;56.30
37456;DHT22;23316;50.718;7.328;2023-07-02T05:32:39;19.00;56.30
37456;DHT22;23316;50.718;7.328;2023-07-02T05:35:06;19.00;56.20
37456;DHT22;23316;50.718;7.328;2023-07-02T05:37:34;19.10;56.20
37456;DHT22;23316;50.718;7.328;2023-07-02T05:40:03;19.10;56.30
37456;DHT22;23316;50.718;7.328;2023-07-02T05:42:30;19.10;56.30
37456;DHT22;23316;50.718;7.328;2023-07-02T05:44:57;19.10;56.30
37456;DHT22;23316;50.718;7.328;2023-07-02T05:47:24;19.20;56.70
37456;DHT22;23316;50.718;7.328;2023-07-02T05:49:52;19.20;56.50
37456;DHT22;23316;50.718;7.328;2023-07-02T05:52:19;19.20;56.50
37456;DHT22;23316;50.718;7.328;2023-07-02T05:54:48;19.20;56.50
37456;DHT22;23316;50.718;7.328;2023-07-02T05:57:17;19.30;56.50
37456;DHT22;23316;50.718;7.328;2023-07-02T05:59:44;19.30;56.50
37456;DHT22;23316;50.718;7.328;2023-07-02T06:02:11;19.30;56.50
37456;DHT22;23316;50.718;7.328;2023-07-02T06:04:38;19.40;56.50
37456;DHT22;23316;50.718;7.328;2023-07-02T06:07:06;19.40;56.40
37456;DHT22;23316;50.718;7.328;2023-07-02T06:09:33;19.40;56.40
37456;DHT22;23316;50.718;7.328;2023-07-02T06:12:01;19.50;56.40
37456;DHT22;23316;50.718;7.328;2023-07-02T06:14:29;19.50;56.40
37456;DHT22;23316;50.718;7.328;2023-07-02T06:16:56;19.50;56.40
37456;DHT22;23316;50.718;7.328;2023-07-02T06:19:25;19.50;56.40
37456;DHT22;23316;50.718;7.328;2023-07-02T06:21:52;19.60;56.40
37456;DHT22;23316;50.718;7.328;2023-07-02T06:24:20;19.60;56.80
37456;DHT22;23316;50.718;7.328;2023-07-02T06:26:47;19.70;56.30
37456;DHT22;23316;50.718;7.328;2023-07-02T06:29:14;19.70;56.20
37456;DHT22;23316;50.718;7.328;2023-07-02T06:31:43;19.70;56.20
37456;DHT22;23316;50.718;7.328;2023-07-02T06:34:10;19.80;56.30
37456;DHT22;23316;50.718;7.328;2023-07-02T06:36:37;19.80;56.20
37456;DHT22;23316;50.718;7.328;2023-07-02T06:39:04;19.80;56.10
37456;DHT22;23316;50.718;7.328;2023-07-02T06:41:31;19.80;56.00
37456;DHT22;23316;50.718;7.328;2023-07-02T06:43:58;19.90;56.00
37456;DHT22;23316;50.718;7.328;2023-07-02T06:46:27;19.90;56.00
37456;DHT22;23316;50.718;7.328;2023-07-02T06:48:56;19.90;55.90
37456;DHT22;23316;50.718;7.328;2023-07-02T06:51:23;20.00;55.90
37456;DHT22;23316;50.718;7.328;2023-07-02T06:53:52;20.00;55.90
37456;DHT22;23316;50.718;7.328;2023-07-02T06:56:20;20.10;55.90
37456;DHT22;23316;50.718;7.328;2023-07-02T06:58:47;20.10;55.90
37456;DHT22;23316;50.718;7.328;2023-07-02T07:01:14;20.10;56.00
37456;DHT22;23316;50.718;7.328;2023-07-02T07:03:42;20.20;56.10
37456;DHT22;23316;50.718;7.328;2023-07-02T07:06:11;20.20;56.00
37456;DHT22;23316;50.718;7.328;2023-07-02T07:08:38;20.20;56.00
37456;DHT22;23316;50.718;7.328;2023-07-02T07:11:06;20.30;55.90
37456;DHT22;23316;50.718;7.328;2023-07-02T07:13:33;20.30;55.70
37456;DHT22;23316;50.718;7.328;2023-07-02T07:16:00;20.30;55.50
37456;DHT22;23316;50.718;7.328;2023-07-02T07:18:27;20.40;55.60
37456;DHT22;23316;50.718;7.328;2023-07-02T07:20:55;20.50;55.70
37456;DHT22;23316;50.718;7.328;2023-07-02T07:23:24;20.50;55.70
37456;DHT22;23316;50.718;7.328;2023-07-02T07:25:51;20.50;55.50
37456;DHT22;23316;50.718;7.328;2023-07-02T07:28:18;20.60;55.30
37456;DHT22;23316;50.718;7.328;2023-07-02T07:30:45;20.60;55.20
37456;DHT22;23316;50.718;7.328;2023-07-02T07:33:12;20.60;55.20
37456;DHT22;23316;50.718;7.328;2023-07-02T07:35:40;20.70;55.00
37456;DHT22;23316;50.718;7.328;2023-07-02T07:38:07;20.70;54.90
37456;DHT22;23316;50.718;7.328;2023-07-02T07:40:35;20.80;54.70
37456;DHT22;23316;50.718;7.328;2023-07-02T07:43:03;20.80;54.50
37456;DHT22;23316;50.718;7.328;2023-07-02T07:45:30;20.80;54.30
37456;DHT22;23316;50.718;7.328;2023-07-02T07:47:57;20.80;54.00
37456;DHT22;23316;50.718;7.328;2023-07-02T07:50:24;20.90;53.70
37456;DHT22;23316;50.718;7.328;2023-07-02T07:52:51;20.90;53.30
37456;DHT22;23316;50.718;7.328;2023-07-02T07:55:19;20.90;53.10
37456;DHT22;23316;50.718;7.328;2023-07-02T07:57:47;20.90;53.30
37456;DHT22;23316;50.718;7.328;2023-07-02T08:00:15;21.00;53.30
37456;DHT22;23316;50.718;7.328;2023-07-02T08:02:43;21.00;53.10
37456;DHT22;23316;50.718;7.328;2023-07-02T08:05:10;21.00;52.80
37456;DHT22;23316;50.718;7.328;2023-07-02T08:07:39;21.00;52.40
37456;DHT22;23316;50.718;7.328;2023-07-02T08:10:07;21.00;51.70
37456;DHT22;23316;50.718;7.328;2023-07-02T08:12:35;21.00;51.80
37456;DHT22;23316;50.718;7.328;2023-07-02T08:15:04;20.90;52.20
37456;DHT22;23316;50.718;7.328;2023-07-02T08:17:32;20.90;52.00
37456;DHT22;23316;50.718;7.328;2023-07-02T08:20:00;20.90;52.00
37456;DHT22;23316;50.718;7.328;2023-07-02T08:22:27;20.90;52.10
37456;DHT22;23316;50.718;7.328;2023-07-02T08:24:54;21.00;51.80
37456;DHT22;23316;50.718;7.328;2023-07-02T08:27:21;21.00;51.70
37456;DHT22;23316;50.718;7.328;2023-07-02T08:29:49;21.00;51.30
37456;DHT22;23316;50.718;7.328;2023-07-02T08:32:18;21.00;51.40
37456;DHT22;23316;50.718;7.328;2023-07-02T08:34:45;21.10;50.80
37456;DHT22;23316;50.718;7.328;2023-07-02T08:37:12;21.10;50.90
37456;DHT22;23316;50.718;7.328;2023-07-02T08:39:39;21.20;50.80
37456;DHT22;23316;50.718;7.328;2023-07-02T08:42:07;21.20;50.60
37456;DHT22;23316;50.718;7.328;2023-07-02T08:44:34;21.20;49.90
37456;DHT22;23316;50.718;7.328;2023-07-02T08:47:02;21.30;49.80
37456;DHT22;23316;50.718;7.328;2023-07-02T08:49:31;21.30;48.90
37456;DHT22;23316;50.718;7.328;2023-07-02T08:51:58;21.30;49.50
37456;DHT22;23316;50.718;7.328;2023-07-02T08:54:26;21.30;49.10
37456;DHT22;23316;50.718;7.328;2023-07-02T08:56:53;21.40;48.80
37456;DHT22;23316;50.718;7.328;2023-07-02T08:59:20;21.40;49.70
37456;DHT22;23316;50.718;7.328;2023-07-02T09:01:48;21.40;49.20
37456;DHT22;23316;50.718;7.328;2023-07-02T09:04:17;21.50;49.20
37456;DHT22;23316;50.718;7.328;2023-07-02T09:06:47;21.50;48.90
37456;DHT22;23316;50.718;7.328;2023-07-02T09:09:14;21.60;49.10
37456;DHT22;23316;50.718;7.328;2023-07-02T09:11:48;21.60;49.10
37456;DHT22;23316;50.718;7.328;2023-07-02T09:14:26;21.70;49.20
37456;DHT22;23316;50.718;7.328;2023-07-02T09:17:05;21.70;46.90
37456;DHT22;23316;50.718;7.328;2023-07-02T09:19:33;21.80;47.70
37456;DHT22;23316;50.718;7.328;2023-07-02T09:22:03;21.80;48.20
37456;DHT22;23316;50.718;7.328;2023-07-02T09:24:32;21.80;48.00
37456;DHT22;23316;50.718;7.328;2023-07-02T09:27:00;21.90;47.10
37456;DHT22;23316;50.718;7.328;2023-07-02T09:29:29;21.90;47.00
37456;DHT22;23316;50.718;7.328;2023-07-02T09:31:58;22.00;46.80
37456;DHT22;23316;50.718;7.328;2023-07-02T09:34:29;22.00;47.00
37456;DHT22;23316;50.718;7.328;2023-07-02T09:36:57;22.00;46.60
37456;DHT22;23316;50.718;7.328;2023-07-02T09:39:30;22.10;46.90
37456;DHT22;23316;50.718;7.328;2023-07-02T09:41:58;22.10;46.10
37456;DHT22;23316;50.718;7.328;2023-07-02T09:44:27;22.00;46.60
37456;DHT22;23316;50.718;7.328;2023-07-02T09:47:00;22.10;46.80
37456;DHT22;23316;50.718;7.328;2023-07-02T09:49:32;22.10;46.20
37456;DHT22;23316;50.718;7.328;2023-07-02T09:52:00;22.00;46.10
37456;DHT22;23316;50.718;7.328;2023-07-02T09:54:29;21.90;46.30
37456;DHT22;23316;50.718;7.328;2023-07-02T09:56:56;21.90;46.60
37456;DHT22;23316;50.718;7.328;2023-07-02T09:59:24;21.80;46.60
37456;DHT22;23316;50.718;7.328;2023-07-02T10:01:51;21.80;47.30
37456;DHT22;23316;50.718;7.328;2023-07-02T10:04:20;21.70;47.30
37456;DHT22;23316;50.718;7.328;2023-07-02T10:06:50;21.70;47.40
37456;DHT22;23316;50.718;7.328;2023-07-02T10:09:17;21.70;47.50
37456;DHT22;23316;50.718;7.328;2023-07-02T10:11:46;21.70;47.60
37456;DHT22;23316;50.718;7.328;2023-07-02T10:14:13;21.70;47.10
37456;DHT22;23316;50.718;7.328;2023-07-02T10:16:51;21.70;47.00
37456;DHT22;23316;50.718;7.328;2023-07-02T10:19:19;21.70;47.40
37456;DHT22;23316;50.718;7.328;2023-07-02T10:21:46;21.70;47.50
37456;DHT22;23316;50.718;7.328;2023-07-02T10:24:17;21.80;47.50
37456;DHT22;23316;50.718;7.328;2023-07-02T10:26:56;21.80;47.50
37456;DHT22;23316;50.718;7.328;2023-07-02T10:29:25;21.80;47.70
37456;DHT22;23316;50.718;7.328;2023-07-02T10:31:54;21.80;47.90
37456;DHT22;23316;50.718;7.328;2023-07-02T10:34:31;21.90;47.90
37456;DHT22;23316;50.718;7.328;2023-07-02T10:37:00;21.90;47.60
37456;DHT22;23316;50.718;7.328;2023-07-02T10:39:28;22.00;48.10
37456;DHT22;23316;50.718;7.328;2023-07-02T10:42:07;22.00;48.10
37456;DHT22;23316;50.718;7.328;2023-07-02T10:44:46;22.00;48.20
37456;DHT22;23316;50.718;7.328;2023-07-02T10:47:13;22.10;48.60
37456;DHT22;23316;50.718;7.328;2023-07-02T10:49:40;22.10;48.20
37456;DHT22;23316;50.718;7.328;2023-07-02T10:52:08;22.30;48.60
37456;DHT22;23316;50.718;7.328;2023-07-02T10:54:39;22.30;48.30
37456;DHT22;23316;50.718;7.328;2023-07-02T10:57:10;22.40;48.00
37456;DHT22;23316;50.718;7.328;2023-07-02T10:59:37;22.40;47.70
37456;DHT22;23316;50.718;7.328;2023-07-02T11:02:05;22.50;47.80
37456;DHT22;23316;50.718;7.328;2023-07-02T11:04:33;22.50;47.80
37456;DHT22;23316;50.718;7.328;2023-07-02T11:07:00;22.50;47.30
37456;DHT22;23316;50.718;7.328;2023-07-02T11:09:28;22.60;47.60
37456;DHT22;23316;50.718;7.328;2023-07-02T11:11:56;22.60;48.00
37456;DHT22;23316;50.718;7.328;2023-07-02T11:14:29;22.70;47.80
37456;DHT22;23316;50.718;7.328;2023-07-02T11:16:57;22.70;47.20
37456;DHT22;23316;50.718;7.328;2023-07-02T11:19:24;22.70;46.80
37456;DHT22;23316;50.718;7.328;2023-07-02T11:21:53;22.70;46.30
37456;DHT22;23316;50.718;7.328;2023-07-02T11:24:30;22.70;46.40
37456;DHT22;23316;50.718;7.328;2023-07-02T11:26:58;22.70;46.20
37456;DHT22;23316;50.718;7.328;2023-07-02T11:29:25;22.70;46.40
37456;DHT22;23316;50.718;7.328;2023-07-02T11:31:54;22.80;46.70
37456;DHT22;23316;50.718;7.328;2023-07-02T11:34:22;22.70;46.70
37456;DHT22;23316;50.718;7.328;2023-07-02T11:36:50;22.70;46.70
37456;DHT22;23316;50.718;7.328;2023-07-02T11:39:19;22.70;46.40
37456;DHT22;23316;50.718;7.328;2023-07-02T11:41:47;22.80;46.40
37456;DHT22;23316;50.718;7.328;2023-07-02T11:44:16;22.80;46.20
37456;DHT22;23316;50.718;7.328;2023-07-02T11:46:44;22.80;46.00
37456;DHT22;23316;50.718;7.328;2023-07-02T11:49:15;22.80;45.90
37456;DHT22;23316;50.718;7.328;2023-07-02T11:51:43;22.80;45.70
37456;DHT22;23316;50.718;7.328;2023-07-02T11:54:14;22.80;45.30
37456;DHT22;23316;50.718;7.328;2023-07-02T11:56:42;22.80;44.60
37456;DHT22;23316;50.718;7.328;2023-07-02T11:59:09;22.90;45.00
37456;DHT22;23316;50.718;7.328;2023-07-02T12:01:36;22.90;45.20
37456;DHT22;23316;50.718;7.328;2023-07-02T12:04:05;22.90;45.50
37456;DHT22;23316;50.718;7.328;2023-07-02T12:06:34;22.90;44.90
37456;DHT22;23316;50.718;7.328;2023-07-02T12:09:02;23.00;45.10
37456;DHT22;23316;50.718;7.328;2023-07-02T12:11:29;23.00;44.40
37456;DHT22;23316;50.718;7.328;2023-07-02T12:13:56;23.10;42.80
37456;DHT22;23316;50.718;7.328;2023-07-02T12:16:24;23.10;43.20
37456;DHT22;23316;50.718;7.328;2023-07-02T12:18:51;23.20;43.00
37456;DHT22;23316;50.718;7.328;2023-07-02T12:21:18;23.20;43.10
37456;DHT22;23316;50.718;7.328;2023-07-02T12:23:47;23.20;43.50
37456;DHT22;23316;50.718;7.328;2023-07-02T12:26:14;23.30;43.60
37456;DHT22;23316;50.718;7.328;2023-07-02T12:28:41;23.40;43.70
37456;DHT22;23316;50.718;7.328;2023-07-02T12:31:08;23.40;42.60
37456;DHT22;23316;50.718;7.328;2023-07-02T12:33:36;23.50;42.40
37456;DHT22;23316;50.718;7.328;2023-07-02T12:36:03;23.60;41.50
37456;DHT22;23316;50.718;7.328;2023-07-02T12:38:30;23.70;41.90
37456;DHT22;23316;50.718;7.328;2023-07-02T12:40:59;23.70;41.40
37456;DHT22;23316;50.718;7.328;2023-07-02T12:43:26;23.70;41.70
37456;DHT22;23316;50.718;7.328;2023-07-02T12:45:53;23.70;41.50
37456;DHT22;23316;50.718;7.328;2023-07-02T12:48:21;23.80;41.70
37456;DHT22;23316;50.718;7.328;2023-07-02T12:50:54;23.80;41.50
37456;DHT22;23316;50.718;7.328;2023-07-02T12:53:22;23.70;41.50
37456;DHT22;23316;50.718;7.328;2023-07-02T12:55:49;23.80;42.30
37456;DHT22;23316;50.718;7.328;2023-07-02T12:58:17;23.80;41.70
37456;DHT22;23316;50.718;7.328;2023-07-02T13:00:46;23.70;41.90
37456;DHT22;23316;50.718;7.328;2023-07-02T13:03:17;23.70;42.20
37456;DHT22;23316;50.718;7.328;2023-07-02T13:05:44;23.70;42.30
37456;DHT22;23316;50.718;7.328;2023-07-02T13:08:11;23.70;42.00
37456;DHT22;23316;50.718;7.328;2023-07-02T13:10:39;23.70;42.20
37456;DHT22;23316;50.718;7.328;2023-07-02T13:13:06;23.80;42.70
37456;DHT22;23316;50.718;7.328;2023-07-02T13:15:34;23.70;42.30
37456;DHT22;23316;50.718;7.328;2023-07-02T13:18:02;23.80;41.50
37456;DHT22;23316;50.718;7.328;2023-07-02T13:20:29;23.80;42.60
37456;DHT22;23316;50.718;7.328;2023-07-02T13:22:56;23.80;41.80
37456;DHT22;23316;50.718;7.328;2023-07-02T13:25:24;23.80;41.70
37456;DHT22;23316;50.718;7.328;2023-07-02T13:27:52;23.80;41.00
37456;DHT22;23316;50.718;7.328;2023-07-02T13:30:19;23.80;41.30
37456;DHT22;23316;50.718;7.328;2023-07-02T13:32:47;23.80;41.40
37456;DHT22;23316;50.718;7.328;2023-07-02T13:35:15;23.70;41.10
37456;DHT22;23316;50.718;7.328;2023-07-02T13:37:42;23.70;41.80
37456;DHT22;23316;50.718;7.328;2023-07-02T13:40:10;23.70;42.10
37456;DHT22;23316;50.718;7.328;2023-07-02T13:42:38;23.80;41.60
37456;DHT22;23316;50.718;7.328;2023-07-02T13:45:07;23.80;41.30
37456;DHT22;23316;50.718;7.328;2023-07-02T13:47:35;23.80;41.10
37456;DHT22;23316;50.718;7.328;2023-07-02T13:50:04;23.80;41.00
37456;DHT22;23316;50.718;7.328;2023-07-02T13:52:32;23.80;41.20
37456;DHT22;23316;50.718;7.328;2023-07-02T13:54:59;23.90;41.10
37456;DHT22;23316;50.718;7.328;2023-07-02T13:57:26;23.90;41.20
37456;DHT22;23316;50.718;7.328;2023-07-02T13:59:55;23.90;41.00
37456;DHT22;23316;50.718;7.328;2023-07-02T14:02:23;23.90;41.00
37456;DHT22;23316;50.718;7.328;2023-07-02T14:04:50;23.90;41.30
37456;DHT22;23316;50.718;7.328;2023-07-02T14:07:17;23.90;41.00
37456;DHT22;23316;50.718;7.328;2023-07-02T14:09:45;23.90;41.20
37456;DHT22;23316;50.718;7.328;2023-07-02T14:12:12;24.00;41.20
37456;DHT22;23316;50.718;7.328;2023-07-02T14:14:39;24.00;40.60
37456;DHT22;23316;50.718;7.328;2023-07-02T14:17:08;24.00;40.90
37456;DHT22;23316;50.718;7.328;2023-07-02T14:19:35;24.00;41.00
37456;DHT22;23316;50.718;7.328;2023-07-02T14:22:03;23.90;41.20
37456;DHT22;23316;50.718;7.328;2023-07-02T14:24:30;24.00;41.20
37456;DHT22;23316;50.718;7.328;2023-07-02T14:26:57;24.00;41.50
37456;DHT22;23316;50.718;7.328;2023-07-02T14:29:24;24.00;41.30
37456;DHT22;23316;50.718;7.328;2023-07-02T14:31:51;24.00;41.50
37456;DHT22;23316;50.718;7.328;2023-07-02T14:34:20;24.10;41.70
37456;DHT22;23316;50.718;7.328;2023-07-02T14:36:48;24.10;41.80
37456;DHT22;23316;50.718;7.328;2023-07-02T14:39:15;24.20;41.80
37456;DHT22;23316;50.718;7.328;2023-07-02T14:41:42;24.20;41.40
37456;DHT22;23316;50.718;7.328;2023-07-02T14:44:09;24.20;41.20
37456;DHT22;23316;50.718;7.328;2023-07-02T14:46:36;24.20;40.70
37456;DHT22;23316;50.718;7.328;2023-07-02T14:49:04;24.20;40.10
37456;DHT22;23316;50.718;7.328;2023-07-02T14:51:32;24.20;39.40
37456;DHT22;23316;50.718;7.328;2023-07-02T14:53:59;24.20;39.60
37456;DHT22;23316;50.718;7.328;2023-07-02T14:56:29;24.30;39.50
37456;DHT22;23316;50.718;7.328;2023-07-02T14:58:56;24.30;39.30
37456;DHT22;23316;50.718;7.328;2023-07-02T15:01:23;24.30;39.40
37456;DHT22;23316;50.718;7.328;2023-07-02T15:03:51;24.30;39.60
37456;DHT22;23316;50.718;7.328;2023-07-02T15:06:18;24.30;39.80
37456;DHT22;23316;50.718;7.328;2023-07-02T15:08:47;24.30;39.60
37456;DHT22;23316;50.718;7.328;2023-07-02T15:11:15;24.30;39.80
37456;DHT22;23316;50.718;7.328;2023-07-02T15:13:42;24.40;39.70
37456;DHT22;23316;50.718;7.328;2023-07-02T15:16:11;24.40;39.30
37456;DHT22;23316;50.718;7.328;2023-07-02T15:18:39;24.40;39.00
37456;DHT22;23316;50.718;7.328;2023-07-02T15:21:06;24.40;39.20
37456;DHT22;23316;50.718;7.328;2023-07-02T15:23:33;24.50;39.40
37456;DHT22;23316;50.718;7.328;2023-07-02T15:26:03;24.50;39.20
37456;DHT22;23316;50.718;7.328;2023-07-02T15:28:32;24.50;38.50
37456;DHT22;23316;50.718;7.328;2023-07-02T15:31:03;24.50;39.00
37456;DHT22;23316;50.718;7.328;2023-07-02T15:33:30;24.50;38.50
37456;DHT22;23316;50.718;7.328;2023-07-02T15:35:59;24.60;38.70